Time;durP1;ratioP1;P1;durP2;ratioP2;P2;SDS_P1;SDS_P2;PMS_P1;PMS_P2;Temp;Humidity;BMP_temperature;BMP_pressure;BME280_temperature;BME280_humidity;BME280_pressure;Samples;Min_cycle;Max_cycle;Signal;HPM_P1;HPM_P2
2023/08/31 00:00:27;;;;;;;;;;;;;;;27.86;61.97;100074.72;7403008;19;1370;-50
2023/08/31 00:02:55;;;;;;;;;;;;;;;27.83;61.99;100064.25;7401658;19;1724;-50
2023/08/31 00:05:24;;;;;;;;;;;;;;;27.87;61.71;100061.94;7403242;19;1762;-49
2023/08/31 00:07:55;;;;;;;;;;;;;;;27.86;61.65;100052.16;7403042;19;1688;-49
2023/08/31 00:10:24;;;;;;;;;;;;;;;27.88;61.94;100055.53;7402038;19;1779;-50
2023/08/31 00:12:52;;;;;;;;;;;;;;;27.88;61.86;100050.09;7403369;19;1791;-50
2023/08/31 00:15:20;;;;;;;;;;;;;;;27.86;61.90;100061.13;7401252;19;1841;-50
2023/08/31 00:17:49;;;;;;;;;;;;;;;27.87;61.83;100060.09;7403984;19;1876;-50
2023/08/31 00:20:17;;;;;;;;;;;;;;;27.84;61.67;100071.38;7402837;19;1865;-51
2023/08/31 00:22:45;;;;;;;;;;;;;;;27.84;61.69;100075.97;7403680;19;1733;-49
2023/08/31 00:25:17;;;;;;;;;;;;;;;27.85;61.73;100069.47;7402744;19;1906;-49
2023/08/31 00:27:47;;;;;;;;;;;;;;;27.81;61.89;100082.66;7402922;19;1716;-49
2023/08/31 00:30:15;;;;;;;;;;;;;;;27.86;61.87;100085.56;7402121;19;1819;-49
2023/08/31 00:32:44;;;;;;;;;;;;;;;27.84;61.88;100098.53;7401366;19;1702;-49
2023/08/31 00:35:12;;;;;;;;;;;;;;;27.78;61.73;100086.63;7401675;19;1845;-49
2023/08/31 00:37:41;;;;;;;;;;;;;;;27.81;62.02;100106.28;7401668;19;1517;-50
2023/08/31 00:40:11;;;;;;;;;;;;;;;27.81;62.02;100098.13;7402314;19;1732;-50
2023/08/31 00:42:42;;;;;;;;;;;;;;;27.82;61.88;100116.09;7402218;19;1628;-50
2023/08/31 00:45:11;;;;;;;;;;;;;;;27.78;61.83;100083.91;7402349;19;1695;-50
2023/08/31 00:47:39;;;;;;;;;;;;;;;27.85;61.98;100086.59;7401456;19;1675;-50
2023/08/31 00:50:10;;;;;;;;;;;;;;;27.78;62.01;100083.91;7401487;19;1419;-51
2023/08/31 00:52:39;;;;;;;;;;;;;;;27.78;61.88;100094.78;7402122;19;1757;-50
2023/08/31 00:55:08;;;;;;;;;;;;;;;27.76;62.01;100080.56;7400464;19;1855;-50
2023/08/31 00:57:36;;;;;;;;;;;;;;;27.78;61.98;100089.34;7398853;19;1708;-50
2023/08/31 01:00:10;;;;;;;;;;;;;;;27.76;61.82;100088.72;7403324;19;947;-50
2023/08/31 01:02:43;;;;;;;;;;;;;;;27.75;62.05;100089.78;7399889;19;1466;-50
2023/08/31 01:05:15;;;;;;;;;;;;;;;27.76;61.96;100096.88;7398782;19;1726;-52
2023/08/31 01:07:52;;;;;;;;;;;;;;;27.74;62.16;100109.84;7399245;19;1386;-49
2023/08/31 01:10:25;;;;;;;;;;;;;;;27.74;61.97;100098.13;7399090;19;1809;-50
2023/08/31 01:12:57;;;;;;;;;;;;;;;27.74;61.95;100098.13;7401233;19;1815;-50
2023/08/31 01:15:31;;;;;;;;;;;;;;;27.75;62.20;100089.78;7399547;19;1867;-49
2023/08/31 01:18:00;;;;;;;;;;;;;;;27.77;61.96;100112.13;7401018;19;1682;-50
2023/08/31 01:20:31;;;;;;;;;;;;;;;27.77;62.05;100104.00;7400568;19;1427;-49
2023/08/31 01:23:03;;;;;;;;;;;;;;;27.76;61.85;100107.75;7400589;19;1460;-50
2023/08/31 01:25:35;;;;;;;;;;;;;;;27.77;62.05;100100.41;7401994;19;1739;-50
2023/08/31 01:28:03;;;;;;;;;;;;;;;27.75;61.86;100103.38;7401701;19;1000;-49
2023/08/31 01:30:32;;;;;;;;;;;;;;;27.76;62.02;100112.34;7401648;19;1807;-50
2023/08/31 01:33:00;;;;;;;;;;;;;;;27.76;61.93;100096.03;7398421;19;1882;-49
2023/08/31 01:35:29;;;;;;;;;;;;;;;27.76;61.91;100107.75;7399425;19;1852;-50
2023/08/31 01:37:59;;;;;;;;;;;;;;;27.74;62.03;100104.41;7400548;19;1766;-49
2023/08/31 01:40:34;;;;;;;;;;;;;;;27.72;62.02;100109.19;7400571;19;1743;-50
2023/08/31 01:43:06;;;;;;;;;;;;;;;27.71;62.17;100121.09;7400289;19;1857;-49
2023/08/31 01:45:35;;;;;;;;;;;;;;;27.72;62.20;100117.34;7399363;19;1537;-50
2023/08/31 01:48:03;;;;;;;;;;;;;;;27.73;61.95;100113.56;7398978;19;1840;-50
2023/08/31 01:50:32;;;;;;;;;;;;;;;27.73;62.07;100102.72;7400726;19;1817;-50
2023/08/31 01:53:00;;;;;;;;;;;;;;;27.74;62.04;100114.44;7399716;19;1892;-50
2023/08/31 01:55:28;;;;;;;;;;;;;;;27.76;61.88;100112.34;7398076;19;1846;-49
2023/08/31 01:57:57;;;;;;;;;;;;;;;27.74;61.97;100117.97;7398770;19;1859;-50
2023/08/31 02:00:28;;;;;;;;;;;;;;;27.71;62.27;100121.09;7399030;19;1704;-49
2023/08/31 02:02:56;;;;;;;;;;;;;;;27.74;62.14;100111.72;7398738;19;2356;-50
2023/08/31 02:05:25;;;;;;;;;;;;;;;27.71;62.16;100101.25;7398985;19;1684;-49
2023/08/31 02:07:53;;;;;;;;;;;;;;;27.73;62.13;100124.44;7398303;19;1809;-50
2023/08/31 02:10:21;;;;;;;;;;;;;;;27.71;62.02;100115.66;7398195;19;1826;-50
2023/08/31 02:12:50;;;;;;;;;;;;;;;27.74;62.10;100114.44;7398982;19;1747;-49
2023/08/31 02:15:18;;;;;;;;;;;;;;;27.78;62.09;100105.66;7399027;19;1851;-50
2023/08/31 02:17:49;;;;;;;;;;;;;;;27.77;62.07;100104.00;7397230;19;1770;-49
2023/08/31 02:20:17;;;;;;;;;;;;;;;27.76;61.80;100091.44;7399348;19;1517;-49
2023/08/31 02:22:45;;;;;;;;;;;;;;;27.81;61.99;100111.72;7398923;19;1489;-49
2023/08/31 02:25:16;;;;;;;;;;;;;;;27.78;62.00;100094.78;7398593;19;1779;-49
2023/08/31 02:27:44;;;;;;;;;;;;;;;27.77;61.81;100098.56;7397430;19;1801;-49
2023/08/31 02:30:13;;;;;;;;;;;;;;;27.75;61.88;100097.94;7398179;19;1724;-49
2023/08/31 02:32:41;;;;;;;;;;;;;;;27.77;61.85;100095.84;7399527;19;1743;-49
2023/08/31 02:35:12;;;;;;;;;;;;;;;27.76;61.90;100096.03;7398920;19;1843;-50
2023/08/31 02:37:40;;;;;;;;;;;;;;;27.75;61.83;100106.09;7398067;19;1731;-49
2023/08/31 02:40:09;;;;;;;;;;;;;;;27.73;61.97;100100.00;7398587;19;1850;-50
2023/08/31 02:42:37;;;;;;;;;;;;;;;27.74;62.17;100096.25;7398308;19;1492;-49
2023/08/31 02:45:06;;;;;;;;;;;;;;;27.72;62.07;100101.06;7398336;19;1969;-50
2023/08/31 02:47:35;;;;;;;;;;;;;;;27.74;61.87;100098.97;7397139;19;1864;-50
2023/08/31 02:50:03;;;;;;;;;;;;;;;27.70;62.28;100100.44;7397855;19;1972;-50
2023/08/31 02:52:34;;;;;;;;;;;;;;;27.70;62.15;100116.72;7397144;19;1701;-50
2023/08/31 02:55:02;;;;;;;;;;;;;;;27.69;61.95;100112.31;7396877;19;1853;-50
2023/08/31 02:57:30;;;;;;;;;;;;;;;27.71;61.97;100104.81;7396801;19;1728;-50
2023/08/31 02:59:59;;;;;;;;;;;;;;;27.74;62.00;100101.69;7397585;19;1854;-49
2023/08/31 03:02:27;;;;;;;;;;;;;;;27.68;62.01;100124.25;7396631;19;1756;-50
2023/08/31 03:04:56;;;;;;;;;;;;;;;27.68;62.34;100099.81;7397426;19;1758;-50
2023/08/31 03:07:21;;;;;;;;;;;;;;;27.72;62.30;100105.66;7396647;19;1803;-49
2023/08/31 03:09:53;;;;;;;;;;;;;;;27.67;62.32;100117.13;7397568;19;1738;-49
2023/08/31 03:12:22;;;;;;;;;;;;;;;27.68;62.33;100116.09;7397730;19;1569;-50
2023/08/31 03:14:50;;;;;;;;;;;;;;;27.68;62.32;100126.97;7397522;19;1730;-50
2023/08/31 03:17:18;;;;;;;;;;;;;;;27.69;61.99;100108.78;7396064;19;1957;-49
2023/08/31 03:19:47;;;;;;;;;;;;;;;27.65;62.28;100121.94;7395900;19;1810;-50
2023/08/31 03:22:15;;;;;;;;;;;;;;;27.67;62.21;100119.84;7396137;19;1806;-50
2023/08/31 03:24:44;;;;;;;;;;;;;;;27.64;62.17;100103.97;7396346;19;1823;-49
2023/08/31 03:27:15;;;;;;;;;;;;;;;27.65;62.40;100107.53;7394745;19;1797;-50
2023/08/31 03:29:44;;;;;;;;;;;;;;;27.66;62.18;100110.03;7395161;19;1640;-50
2023/08/31 03:32:12;;;;;;;;;;;;;;;27.64;62.30;100133.88;7396626;19;1699;-50
2023/08/31 03:34:40;;;;;;;;;;;;;;;27.69;62.33;100128.63;7394837;19;1664;-50
2023/08/31 03:37:09;;;;;;;;;;;;;;;27.65;62.20;100131.97;7395749;19;1853;-50
2023/08/31 03:39:37;;;;;;;;;;;;;;;27.66;62.28;100139.91;7395774;19;1981;-50
2023/08/31 03:42:06;;;;;;;;;;;;;;;27.69;62.10;100131.34;7395724;19;1861;-50
2023/08/31 03:44:37;;;;;;;;;;;;;;;27.64;62.16;100142.00;7394968;19;1783;-50
2023/08/31 03:47:06;;;;;;;;;;;;;;;27.60;62.31;100135.31;7396145;19;1754;-50
2023/08/31 03:49:34;;;;;;;;;;;;;;;27.63;62.08;100134.91;7395987;19;1747;-50
2023/08/31 03:52:03;;;;;;;;;;;;;;;27.64;62.24;100144.72;7395043;19;1500;-50
2023/08/31 03:54:32;;;;;;;;;;;;;;;27.62;62.17;100154.97;7394608;19;1485;-49
2023/08/31 03:57:00;;;;;;;;;;;;;;;27.64;62.13;100147.44;7395127;19;1834;-50
2023/08/31 03:59:29;;;;;;;;;;;;;;;27.64;62.31;100157.47;7394422;19;1075;-49
2023/08/31 04:02:00;;;;;;;;;;;;;;;27.64;62.34;100155.59;7392893;19;1863;-49
2023/08/31 04:04:28;;;;;;;;;;;;;;;27.67;62.35;100162.47;7397120;19;1505;-49
2023/08/31 04:06:57;;;;;;;;;;;;;;;27.63;62.19;100155.78;7394094;19;1712;-50
2023/08/31 04:09:25;;;;;;;;;;;;;;;27.64;62.23;100158.31;7396745;19;971;-50
2023/08/31 04:11:53;;;;;;;;;;;;;;;27.62;62.05;100156.84;7396759;19;1661;-50
2023/08/31 04:14:21;;;;;;;;;;;;;;;27.61;62.04;100164.16;7395830;19;1528;-50
2023/08/31 04:16:50;;;;;;;;;;;;;;;27.61;62.43;100180.44;7393289;19;1855;-50
2023/08/31 04:19:21;;;;;;;;;;;;;;;27.59;62.24;100163.50;7395504;19;1477;-50
2023/08/31 04:21:49;;;;;;;;;;;;;;;27.64;62.21;100174.59;7395483;19;1498;-50
2023/08/31 04:24:17;;;;;;;;;;;;;;;27.60;62.25;100173.34;7394920;19;1430;-49
2023/08/31 04:26:47;;;;;;;;;;;;;;;27.55;62.26;100173.13;7394406;19;1802;-49
2023/08/31 04:29:16;;;;;;;;;;;;;;;27.61;62.06;100176.91;7393629;19;1782;-49
2023/08/31 04:31:44;;;;;;;;;;;;;;;27.61;62.13;100163.31;7394305;19;1759;-49
2023/08/31 04:34:12;;;;;;;;;;;;;;;27.62;62.40;100184.84;7395097;19;1723;-50
2023/08/31 04:36:43;;;;;;;;;;;;;;;27.64;62.14;100182.75;7394299;19;1843;-50
2023/08/31 04:39:12;;;;;;;;;;;;;;;27.66;62.23;100194.25;7396005;19;1720;-50
2023/08/31 04:41:40;;;;;;;;;;;;;;;27.67;62.11;100189.66;7402072;19;1596;-50
2023/08/31 04:44:08;;;;;;;;;;;;;;;27.67;62.13;100195.06;7402426;19;1476;-49
2023/08/31 04:46:36;;;;;;;;;;;;;;;27.68;62.10;100203.03;7402302;19;1830;-49
2023/08/31 04:49:05;;;;;;;;;;;;;;;27.64;62.19;100201.78;7401970;19;1765;-51
2023/08/31 04:51:33;;;;;;;;;;;;;;;27.68;62.10;100208.47;7402001;19;1684;-50
2023/08/31 04:54:05;;;;;;;;;;;;;;;27.69;62.04;100225.59;7402804;19;1726;-49
2023/08/31 04:56:34;;;;;;;;;;;;;;;27.66;62.01;100215.97;7401067;19;1853;-50
2023/08/31 04:59:02;;;;;;;;;;;;;;;27.63;62.17;100208.22;7400889;19;1533;-50
2023/08/31 05:01:31;;;;;;;;;;;;;;;27.65;62.14;100219.72;7403387;19;1726;-49
2023/08/31 05:03:59;;;;;;;;;;;;;;;27.68;62.25;100213.06;7403371;19;1062;-50
2023/08/31 05:06:28;;;;;;;;;;;;;;;27.66;62.02;100199.69;7399291;19;1513;-50
2023/08/31 05:08:57;;;;;;;;;;;;;;;27.68;61.95;100211.19;7397672;19;1564;-50
2023/08/31 05:11:27;;;;;;;;;;;;;;;27.68;62.03;100222.03;7400650;19;1481;-51
2023/08/31 05:13:56;;;;;;;;;;;;;;;27.68;62.08;100215.78;7401601;19;1874;-49
2023/08/31 05:16:24;;;;;;;;;;;;;;;27.71;61.79;100218.91;7396957;19;1799;-50
2023/08/31 05:18:52;;;;;;;;;;;;;;;27.69;62.05;100209.28;7400265;19;1429;-50
2023/08/31 05:21:21;;;;;;;;;;;;;;;27.69;62.07;100231.03;7399847;19;1363;-50
2023/08/31 05:23:49;;;;;;;;;;;;;;;27.68;62.04;100234.78;7397716;19;1725;-49
2023/08/31 05:26:17;;;;;;;;;;;;;;;27.66;62.26;100239.59;7401270;19;1445;-49
2023/08/31 05:28:48;;;;;;;;;;;;;;;27.64;62.08;100242.50;7400897;19;1731;-50
2023/08/31 05:31:16;;;;;;;;;;;;;;;27.68;61.96;100251.09;7402143;19;1006;-49
2023/08/31 05:33:44;;;;;;;;;;;;;;;27.65;62.25;100252.31;7399204;19;1883;-50
2023/08/31 05:36:13;;;;;;;;;;;;;;;27.65;62.07;100256.94;7397638;19;1855;-50
2023/08/31 05:38:41;;;;;;;;;;;;;;;27.66;62.18;100259.44;7400370;19;1783;-50
2023/08/31 05:41:09;;;;;;;;;;;;;;;27.62;62.04;100260.91;7398169;19;1861;-50
2023/08/31 05:43:39;;;;;;;;;;;;;;;27.64;62.20;100263.41;7400011;19;1704;-49
2023/08/31 05:46:11;;;;;;;;;;;;;;;27.69;62.04;100264.44;7400217;19;1809;-50
2023/08/31 05:48:39;;;;;;;;;;;;;;;27.64;62.15;100261.53;7401041;19;1744;-51
2023/08/31 05:51:07;;;;;;;;;;;;;;;27.60;62.10;100271.13;7400971;19;1711;-50
2023/08/31 05:53:36;;;;;;;;;;;;;;;27.64;62.17;100266.13;7400498;19;1739;-50
2023/08/31 05:56:07;;;;;;;;;;;;;;;27.58;62.26;100249.59;7399528;19;1843;-50
2023/08/31 05:58:35;;;;;;;;;;;;;;;27.67;62.00;100271.97;7400718;19;1761;-50
2023/08/31 06:01:04;;;;;;;;;;;;;;;27.64;62.04;100282.44;7396938;19;2443;-51
2023/08/31 06:03:35;;;;;;;;;;;;;;;27.61;62.27;100283.66;7399782;19;1734;-50
2023/08/31 06:06:04;;;;;;;;;;;;;;;27.60;62.29;100279.28;7400423;19;1892;-50
2023/08/31 06:08:33;;;;;;;;;;;;;;;27.60;62.34;100278.44;7399552;19;1730;-49
2023/08/31 06:11:01;;;;;;;;;;;;;;;27.68;62.32;100294.56;7399520;19;1748;-49
2023/08/31 06:13:29;;;;;;;;;;;;;;;27.62;62.23;100279.09;7400123;19;1643;-50
2023/08/31 06:15:59;;;;;;;;;;;;;;;27.64;62.24;100288.69;7399262;19;1843;-49
2023/08/31 06:18:27;;;;;;;;;;;;;;;27.67;62.06;100290.97;7399275;19;1739;-49
2023/08/31 06:20:58;;;;;;;;;;;;;;;27.70;61.85;100290.59;7398812;19;1822;-50
2023/08/31 06:23:27;;;;;;;;;;;;;;;27.76;61.59;100303.34;7399136;19;1763;-49
2023/08/31 06:25:55;;;;;;;;;;;;;;;27.78;61.55;100290.41;7400300;19;1748;-49
2023/08/31 06:28:23;;;;;;;;;;;;;;;27.85;61.60;100281.41;7399111;19;1860;-49
2023/08/31 06:30:51;;;;;;;;;;;;;;;27.81;61.50;100289.13;7399678;19;1477;-49
2023/08/31 06:33:21;;;;;;;;;;;;;;;27.83;61.52;100281.63;7397231;19;1922;-50
2023/08/31 06:35:51;;;;;;;;;;;;;;;27.90;61.46;100303.41;7398095;19;1902;-50
2023/08/31 06:38:22;;;;;;;;;;;;;;;27.88;61.50;100300.91;7396262;19;1859;-49
2023/08/31 06:40:50;;;;;;;;;;;;;;;27.89;61.39;100318.03;7398355;19;1754;-50
2023/08/31 06:43:19;;;;;;;;;;;;;;;27.92;61.48;100306.78;7398960;19;1796;-50
2023/08/31 06:45:47;;;;;;;;;;;;;;;27.90;61.22;100304.25;7398887;19;1714;-49
2023/08/31 06:48:15;;;;;;;;;;;;;;;27.89;61.42;100294.41;7398620;19;1478;-49
2023/08/31 06:50:44;;;;;;;;;;;;;;;27.99;61.45;100304.06;7398262;19;1695;-49
2023/08/31 06:53:12;;;;;;;;;;;;;;;27.96;61.24;100302.59;7398785;19;1715;-50
2023/08/31 06:55:43;;;;;;;;;;;;;;;27.93;61.48;100301.13;7397916;19;1964;-50
2023/08/31 06:58:11;;;;;;;;;;;;;;;27.98;61.18;100303.22;7396067;19;1835;-50
2023/08/31 07:00:39;;;;;;;;;;;;;;;27.93;61.36;100311.16;7396958;19;1684;-49
2023/08/31 07:03:07;;;;;;;;;;;;;;;27.90;61.59;100301.53;7395197;19;1818;-50
2023/08/31 07:05:37;;;;;;;;;;;;;;;27.91;61.31;100318.66;7396023;19;1770;-50
2023/08/31 07:08:06;;;;;;;;;;;;;;;27.99;61.12;100323.06;7398232;19;1747;-49
2023/08/31 07:10:36;;;;;;;;;;;;;;;27.97;61.28;100331.44;7397029;19;1743;-49
2023/08/31 07:13:07;;;;;;;;;;;;;;;28.02;60.98;100319.97;7396511;19;1778;-50
2023/08/31 07:15:36;;;;;;;;;;;;;;;28.03;61.38;100338.75;7398134;19;1849;-50
2023/08/31 07:18:04;;;;;;;;;;;;;;;28.02;61.27;100334.38;7396646;19;1845;-50
2023/08/31 07:20:32;;;;;;;;;;;;;;;27.91;61.38;100330.41;7399406;19;959;-51
2023/08/31 07:23:00;;;;;;;;;;;;;;;28.00;61.24;100336.47;7397436;19;1890;-50
2023/08/31 07:25:29;;;;;;;;;;;;;;;27.86;61.38;100334.75;7396914;19;1952;-49
2023/08/31 07:27:57;;;;;;;;;;;;;;;28.02;61.27;100328.94;7396480;19;1966;-49
2023/08/31 07:30:28;;;;;;;;;;;;;;;27.97;61.26;100328.72;7396854;19;1862;-50
2023/08/31 07:32:59;;;;;;;;;;;;;;;27.98;61.43;100333.13;7396982;19;1763;-50
2023/08/31 07:35:28;;;;;;;;;;;;;;;27.98;61.27;100344.00;7397493;19;1830;-49
2023/08/31 07:37:56;;;;;;;;;;;;;;;27.88;61.52;100362.56;7396109;19;1840;-50
2023/08/31 07:40:25;;;;;;;;;;;;;;;28.03;61.19;100346.09;7397267;19;1926;-50
2023/08/31 07:42:53;;;;;;;;;;;;;;;28.05;61.33;100344.00;7396178;19;1494;-49
2023/08/31 07:45:21;;;;;;;;;;;;;;;27.92;61.41;100345.66;7397873;19;1729;-50
2023/08/31 07:47:52;;;;;;;;;;;;;;;27.91;61.67;100346.69;7397922;19;1715;-50
2023/08/31 07:50:20;;;;;;;;;;;;;;;28.00;61.44;100349.22;7394455;19;1868;-50
2023/08/31 07:52:49;;;;;;;;;;;;;;;28.02;61.37;100347.97;7395388;19;1850;-49
2023/08/31 07:55:17;;;;;;;;;;;;;;;28.01;61.49;100365.31;7395482;19;1823;-50
2023/08/31 07:57:45;;;;;;;;;;;;;;;27.98;61.44;100364.91;7395035;19;1860;-49
2023/08/31 08:00:14;;;;;;;;;;;;;;;28.00;61.36;100351.94;7396213;19;1838;-50
2023/08/31 08:02:43;;;;;;;;;;;;;;;28.00;61.42;100360.09;7396020;19;1814;-50
2023/08/31 08:05:14;;;;;;;;;;;;;;;28.00;61.33;100366.38;7396031;19;1795;-49
2023/08/31 08:07:42;;;;;;;;;;;;;;;28.01;61.43;100354.44;7395404;19;1711;-50
2023/08/31 08:10:11;;;;;;;;;;;;;;;28.00;61.05;100366.38;7396278;19;1740;-50
2023/08/31 08:12:39;;;;;;;;;;;;;;;27.95;61.65;100366.13;7396189;19;1826;-50
2023/08/31 08:15:09;;;;;;;;;;;;;;;27.99;61.42;100367.41;7400283;19;1810;-49
2023/08/31 08:17:37;;;;;;;;;;;;;;;27.97;61.41;100380.34;7401481;19;1844;-50
2023/08/31 08:20:06;;;;;;;;;;;;;;;28.03;61.53;100367.81;7404076;19;1834;-49
2023/08/31 08:22:38;;;;;;;;;;;;;;;28.03;61.37;100368.66;7403366;19;1814;-50
2023/08/31 08:25:07;;;;;;;;;;;;;;;28.02;61.50;100367.00;7403724;19;1708;-49
2023/08/31 08:27:36;;;;;;;;;;;;;;;27.98;61.48;100371.16;7402880;19;1936;-51
2023/08/31 08:30:05;;;;;;;;;;;;;;;27.97;61.25;100380.34;7402665;19;1716;-51
2023/08/31 08:32:35;;;;;;;;;;;;;;;27.94;61.42;100369.91;7403530;19;1755;-51
2023/08/31 08:35:03;;;;;;;;;;;;;;;28.01;61.26;100369.91;7402714;19;1582;-50
2023/08/31 08:37:32;;;;;;;;;;;;;;;27.98;61.48;100368.44;7402244;19;1837;-50
2023/08/31 08:40:04;;;;;;;;;;;;;;;28.00;61.33;100369.09;7403836;19;1430;-50
2023/08/31 08:42:33;;;;;;;;;;;;;;;28.03;61.13;100373.25;7402893;19;1842;-50
2023/08/31 08:45:03;;;;;;;;;;;;;;;28.03;61.41;100373.25;7403834;19;1887;-52
2023/08/31 08:47:32;;;;;;;;;;;;;;;27.98;61.27;100365.72;7402500;19;1902;-51
2023/08/31 08:50:01;;;;;;;;;;;;;;;27.95;61.23;100372.44;7402012;19;1862;-55
2023/08/31 08:52:31;;;;;;;;;;;;;;;28.00;61.32;100377.25;7402036;19;1747;-53
2023/08/31 08:54:59;;;;;;;;;;;;;;;27.98;61.40;100373.06;7402443;19;1728;-51
2023/08/31 08:57:30;;;;;;;;;;;;;;;27.96;61.33;100373.25;7400620;19;1936;-51
2023/08/31 09:00:00;;;;;;;;;;;;;;;27.97;61.50;100374.91;7402190;19;1704;-51
2023/08/31 09:02:28;;;;;;;;;;;;;;;27.96;61.60;100379.53;7401701;19;1739;-51
2023/08/31 09:04:57;;;;;;;;;;;;;;;27.92;61.56;100375.53;7402174;19;1803;-51
2023/08/31 09:07:26;;;;;;;;;;;;;;;27.91;61.68;100364.88;7401333;19;1837;-51
2023/08/31 09:09:55;;;;;;;;;;;;;;;27.95;61.60;100368.84;7402395;19;1696;-57
2023/08/31 09:12:24;;;;;;;;;;;;;;;27.96;61.72;100373.25;7402122;19;1952;-51
2023/08/31 09:15:05;;;;;;;;;;;;;;;27.97;61.59;100361.31;7401769;19;1486;-51
2023/08/31 09:17:41;;;;;;;;;;;;;;;27.98;61.63;100360.31;7400687;19;1839;-51
2023/08/31 09:20:10;;;;;;;;;;;;;;;27.98;61.44;100360.31;7402179;19;1485;-52
2023/08/31 09:22:38;;;;;;;;;;;;;;;27.95;61.42;100369.72;7401682;19;1445;-51
2023/08/31 09:25:07;;;;;;;;;;;;;;;27.91;61.69;100360.28;7400864;19;1692;-51
2023/08/31 09:27:40;;;;;;;;;;;;;;;27.92;61.62;100375.53;7401050;19;1742;-51
2023/08/31 09:30:11;;;;;;;;;;;;;;;27.94;61.62;100376.16;7400551;19;1747;-51
2023/08/31 09:32:41;;;;;;;;;;;;;;;27.88;61.83;100370.72;7401220;19;1679;-51
2023/08/31 09:35:11;;;;;;;;;;;;;;;27.92;61.37;100377.44;7402011;19;1758;-51
2023/08/31 09:37:39;;;;;;;;;;;;;;;27.90;61.68;100374.91;7399871;19;1942;-52
2023/08/31 09:40:08;;;;;;;;;;;;;;;27.92;61.54;100363.84;7400805;19;1499;-51
2023/08/31 09:42:39;;;;;;;;;;;;;;;27.92;61.79;100378.25;7400736;19;1371;-51
2023/08/31 09:45:08;;;;;;;;;;;;;;;27.93;61.44;100385.38;7400565;19;1887;-51
2023/08/31 09:47:39;;;;;;;;;;;;;;;27.93;61.54;100390.81;7400025;19;1832;-51
2023/08/31 09:50:08;;;;;;;;;;;;;;;27.92;61.37;100388.28;7400344;19;1870;-51
2023/08/31 09:52:37;;;;;;;;;;;;;;;27.92;61.39;100389.13;7399783;19;1861;-51
2023/08/31 09:55:06;;;;;;;;;;;;;;;27.90;61.65;100387.66;7400127;19;1818;-51
2023/08/31 09:57:35;;;;;;;;;;;;;;;27.92;61.69;100394.56;7398695;19;1855;-51
2023/08/31 10:00:03;;;;;;;;;;;;;;;27.93;61.66;100389.97;7400245;19;1814;-52
2023/08/31 10:02:32;;;;;;;;;;;;;;;27.92;61.42;100383.69;7400042;19;1767;-52
2023/08/31 10:05:04;;;;;;;;;;;;;;;27.93;61.49;100382.66;7399465;19;1736;-51
2023/08/31 10:07:32;;;;;;;;;;;;;;;27.95;61.67;100383.28;7399724;19;1838;-51
2023/08/31 10:10:00;;;;;;;;;;;;;;;28.01;61.42;100375.34;7400689;19;1731;-51
2023/08/31 10:12:29;;;;;;;;;;;;;;;28.01;61.24;100369.91;7401019;19;1734;-51
2023/08/31 10:14:58;;;;;;;;;;;;;;;28.05;61.29;100365.75;7399778;19;1431;-48
2023/08/31 10:17:27;;;;;;;;;;;;;;;28.05;61.45;100366.56;7400686;19;1845;-50
2023/08/31 10:19:56;;;;;;;;;;;;;;;28.03;61.42;100368.66;7398630;19;1910;-50
2023/08/31 10:22:27;;;;;;;;;;;;;;;28.04;61.38;100359.47;7399391;19;1714;-50
2023/08/31 10:25:03;;;;;;;;;;;;;;;28.01;61.33;100353.59;7398764;19;1735;-50
2023/08/31 10:27:38;;;;;;;;;;;;;;;28.07;61.17;100358.22;7399850;19;1731;-50
2023/08/31 10:30:24;;;;;;;;;;;;;;;28.10;61.05;100357.81;7399005;19;1731;-51
2023/08/31 10:33:04;;;;;;;;;;;;;;;28.08;61.06;100344.44;7396462;19;1791;-50
2023/08/31 10:35:43;;;;;;;;;;;;;;;27.98;61.53;100346.72;7399162;19;1849;-51
2023/08/31 10:38:25;;;;;;;;;;;;;;;28.09;61.11;100345.25;7396890;19;1841;-50
2023/08/31 10:41:21;;;;;;;;;;;;;;;28.06;61.42;100346.50;7398843;19;1644;-51
2023/08/31 10:43:51;;;;;;;;;;;;;;;28.00;61.36;100352.78;7397728;19;1743;-50
2023/08/31 10:46:40;;;;;;;;;;;;;;;27.98;61.51;100349.44;7398068;19;1817;-50
2023/08/31 10:49:15;;;;;;;;;;;;;;;28.03;61.30;100352.34;7397513;19;2496;-51
2023/08/31 10:51:44;;;;;;;;;;;;;;;27.93;61.63;100346.47;7397851;19;1842;-49
2023/08/31 10:54:16;;;;;;;;;;;;;;;27.96;61.41;100356.94;7397833;19;1876;-49
2023/08/31 10:57:06;;;;;;;;;;;;;;;28.08;61.38;100339.00;7398665;19;1835;-50
2023/08/31 10:59:44;;;;;;;;;;;;;;;28.17;60.98;100334.19;7394843;19;1822;-50
2023/08/31 11:02:12;;;;;;;;;;;;;;;28.07;61.43;100321.03;7397967;19;1807;-50
2023/08/31 11:04:55;;;;;;;;;;;;;;;28.12;61.22;100340.25;7398769;19;1746;-50
2023/08/31 11:07:26;;;;;;;;;;;;;;;27.99;61.41;100333.94;7398689;19;1669;-50
2023/08/31 11:10:09;;;;;;;;;;;;;;;28.11;61.10;100325.00;7398637;19;1826;-50
2023/08/31 11:12:37;;;;;;;;;;;;;;;28.20;61.06;100327.53;7398682;19;1681;-50
2023/08/31 11:15:06;;;;;;;;;;;;;;;28.16;61.07;100319.75;7398519;19;1899;-49
2023/08/31 11:17:35;;;;;;;;;;;;;;;28.03;61.46;100319.72;7397772;19;1845;-50
2023/08/31 11:20:05;;;;;;;;;;;;;;;28.17;61.30;100318.72;7398196;19;1797;-51
2023/08/31 11:22:33;;;;;;;;;;;;;;;28.13;61.23;100339.22;7397144;19;1732;-50
2023/08/31 11:25:04;;;;;;;;;;;;;;;28.09;61.23;100315.34;7396665;19;1707;-50
2023/08/31 11:27:32;;;;;;;;;;;;;;;28.00;61.77;100309.28;7397424;19;1724;-50
2023/08/31 11:30:01;;;;;;;;;;;;;;;28.00;61.58;100314.72;7397180;19;1829;-49
2023/08/31 11:32:29;;;;;;;;;;;;;;;28.01;61.44;100313.66;7398292;19;1767;-49
2023/08/31 11:34:57;;;;;;;;;;;;;;;28.09;61.44;100305.34;7397010;19;1429;-50
2023/08/31 11:37:26;;;;;;;;;;;;;;;28.16;61.34;100314.31;7397321;19;1497;-50
2023/08/31 11:39:55;;;;;;;;;;;;;;;28.16;61.27;100317.03;7396274;19;1839;-50
2023/08/31 11:42:26;;;;;;;;;;;;;;;28.12;61.24;100315.78;7396755;19;1775;-50
2023/08/31 11:44:55;;;;;;;;;;;;;;;28.16;61.21;100317.03;7396373;19;1846;-50
2023/08/31 11:47:24;;;;;;;;;;;;;;;28.12;61.44;100295.94;7396696;19;1921;-50
2023/08/31 11:49:53;;;;;;;;;;;;;;;28.14;61.08;100305.53;7402850;19;1829;-50
2023/08/31 11:52:22;;;;;;;;;;;;;;;28.09;61.44;100305.34;7403810;19;1719;-50
2023/08/31 11:54:54;;;;;;;;;;;;;;;28.14;61.23;100300.09;7404286;19;1731;-49
2023/08/31 11:57:28;;;;;;;;;;;;;;;28.22;61.17;100307.22;7404419;19;1799;-50
2023/08/31 11:59:59;;;;;;;;;;;;;;;28.15;61.26;100301.78;7400794;19;1842;-49
2023/08/31 12:02:27;;;;;;;;;;;;;;;28.13;61.35;100303.88;7403167;19;1740;-50
2023/08/31 12:04:59;;;;;;;;;;;;;;;28.02;61.62;100307.19;7403923;19;1699;-50
2023/08/31 12:07:27;;;;;;;;;;;;;;;28.08;61.61;100300.94;7404009;19;1740;-50
2023/08/31 12:09:55;;;;;;;;;;;;;;;28.07;61.52;100315.59;7404985;19;1797;-51
2023/08/31 12:12:24;;;;;;;;;;;;;;;28.19;61.39;100312.22;7403831;19;1733;-50
2023/08/31 12:14:52;;;;;;;;;;;;;;;28.06;61.71;100303.03;7403000;19;1569;-50
2023/08/31 12:17:23;;;;;;;;;;;;;;;28.09;61.58;100305.34;7404186;19;1908;-52
2023/08/31 12:19:51;;;;;;;;;;;;;;;28.14;61.15;100302.81;7401641;19;1837;-50
2023/08/31 12:22:20;;;;;;;;;;;;;;;28.14;61.42;100293.84;7402697;19;2464;-50
2023/08/31 12:24:48;;;;;;;;;;;;;;;28.22;61.33;100300.97;7402504;19;1802;-49
2023/08/31 12:27:16;;;;;;;;;;;;;;;28.14;61.49;100293.84;7403173;19;1719;-50
2023/08/31 12:29:46;;;;;;;;;;;;;;;28.10;61.46;100300.72;7402202;19;1744;-50
2023/08/31 12:32:14;;;;;;;;;;;;;;;28.21;61.28;100305.53;7403721;19;1829;-50
2023/08/31 12:34:45;;;;;;;;;;;;;;;28.01;61.75;100300.06;7403270;19;1383;-51
2023/08/31 12:37:13;;;;;;;;;;;;;;;28.07;61.57;100304.72;7403557;19;1366;-51
2023/08/31 12:39:45;;;;;;;;;;;;;;;28.07;61.65;100299.28;7401007;19;1873;-52
2023/08/31 12:42:13;;;;;;;;;;;;;;;28.09;61.78;100304.47;7401949;19;1866;-49
2023/08/31 12:44:42;;;;;;;;;;;;;;;28.16;61.33;100308.06;7402059;19;1858;-50
2023/08/31 12:47:10;;;;;;;;;;;;;;;28.16;61.43;100289.84;7402228;19;1728;-50
2023/08/31 12:49:39;;;;;;;;;;;;;;;28.13;61.38;100286.72;7402320;19;1754;-51
2023/08/31 12:52:10;;;;;;;;;;;;;;;28.17;61.16;100310.56;7402331;19;1763;-52
2023/08/31 12:54:38;;;;;;;;;;;;;;;28.21;61.42;100304.69;7401877;19;1813;-51
2023/08/31 12:57:07;;;;;;;;;;;;;;;28.16;61.46;100298.00;7401189;19;1818;-51
2023/08/31 12:59:35;;;;;;;;;;;;;;;28.15;61.44;100312.66;7399377;19;1856;-52